Time,TemperatureF,DewpointF,PressureIn,WindDirection,WindDirectionDegrees,WindSpeedMPH,WindSpeedGustMPH,Humidity,HourlyPrecipIn,Conditions,Clouds,dailyrainin,SoftwareType,DateUTC
2013-08-17 00:01:00,77.1,74.3,29.95,East,98,5.8,5.8,91,0.00,CLR,,0.00,WeatherDisplay:10.37,2013-08-17 05:01:00,
2013-08-17 00:06:00,77.1,74.3,29.95,ESE,110,5.8,5.8,91,0.00,CLR,,0.00,WeatherDisplay:10.37,2013-08-17 05:06:00,
2013-08-17 00:11:00,77.2,74.4,29.95,ESE,103,3.5,3.5,91,0.00,CLR,,0.00,WeatherDisplay:10.37,2013-08-17 05:11:00,
2013-08-17 00:16:00,77.2,74.4,29.95,ESE,107,3.5,3.5,91,0.00,CLR,,0.00,WeatherDisplay:10.37,2013-08-17 05:16:00,
2013-08-17 00:21:00,77.2,74.4,29.95,ESE,107,2.3,2.3,91,0.00,CLR,,0.00,WeatherDisplay:10.37,2013-08-17 05:21:00,
2013-08-17 00:26:00,77.1,74.3,29.95,ESE,107,1.1,0.0,91,0.00,CLR,,0.00,WeatherDisplay:10.37,2013-08-17 05:26:00,
2013-08-17 00:31:00,77.0,74.2,29.95,ESE,107,1.1,1.1,91,0.00,CLR,,0.00,WeatherDisplay:10.37,2013-08-17 05:31:00,
2013-08-17 00:36:00,76.9,74.1,29.95,ESE,107,2.3,2.3,91,0.00,CLR,,0.00,WeatherDisplay:10.37,2013-08-17 05:36:00,
2013-08-17 00:41:00,76.9,74.1,29.95,ENE,75,2.3,2.3,91,0.00,CLR,,0.00,WeatherDisplay:10.37,2013-08-17 05:41:00,
2013-08-17 00:46:00,76.9,74.1,29.96,East,90,3.5,3.5,91,0.00,CLR,,0.00,WeatherDisplay:10.37,2013-08-17 05:46:00,
2013-08-17 00:51:00,77.0,73.8,29.95,NNE,27,1.1,1.1,90,0.00,CLR,,0.00,WeatherDisplay:10.37,2013-08-17 05:51:00,
2013-08-17 00:56:00,77.0,73.8,29.95,NNE,27,1.1,1.1,90,0.00,CLR,,0.00,WeatherDisplay:10.37,2013-08-17 05:56:00,
2013-08-17 01:01:00,77.0,73.8,29.94,NNE,27,1.1,0.0,90,0.00,CLR,,0.00,WeatherDisplay:10.37,2013-08-17 06:01:00,
2013-08-17 01:06:00,77.0,73.8,29.94,NNE,27,0.0,0.0,90,0.00,CLR,,0.00,WeatherDisplay:10.37,2013-08-17 06:06:00,
2013-08-17 01:11:00,76.9,73.7,29.94,NNE,27,2.3,2.3,90,0.00,CLR,,0.00,WeatherDisplay:10.37,2013-08-17 06:11:00,
2013-08-17 01:16:00,76.9,73.4,29.94,NNE,28,1.1,1.1,89,0.00,CLR,,0.00,WeatherDisplay:10.37,2013-08-17 06:16:00,
2013-08-17 01:21:00,76.7,73.2,29.93,NNE,28,0.0,0.0,89,0.00,CLR,,0.00,WeatherDisplay:10.37,2013-08-17 06:21:00,
2013-08-17 01:26:00,76.7,73.2,29.93,NNE,28,0.0,0.0,89,0.00,CLR,,0.00,WeatherDisplay:10.37,2013-08-17 06:26:00,
2013-08-17 01:31:00,76.6,73.1,29.93,NNE,28,0.0,0.0,89,0.00,CLR,,0.00,WeatherDisplay:10.37,2013-08-17 06:31:00,
2013-08-17 01:36:00,76.5,73.3,29.93,NNE,28,0.0,0.0,90,0.00,CLR,,0.00,WeatherDisplay:10.37,2013-08-17 06:36:00,
2013-08-17 01:41:00,76.4,73.2,29.93,NNE,28,0.0,0.0,90,0.00,CLR,,0.00,WeatherDisplay:10.37,2013-08-17 06:41:00,
2013-08-17 01:46:00,76.2,73.1,29.93,NNE,28,1.1,1.1,90,0.00,CLR,,0.00,WeatherDisplay:10.37,2013-08-17 06:46:00,
2013-08-17 01:51:00,76.0,72.9,29.93,NNE,28,0.0,0.0,90,0.00,CLR,,0.00,WeatherDisplay:10.37,2013-08-17 06:51:00,
2013-08-17 01:56:00,75.9,73.1,29.93,NNE,28,0.0,0.0,91,0.00,CLR,,0.00,WeatherDisplay:10.37,2013-08-17 06:56:00,
2013-08-17 02:01:00,75.8,73.0,29.92,NNE,28,0.0,0.0,91,0.00,CLR,,0.00,WeatherDisplay:10.37,2013-08-17 07:01:00,
2013-08-17 02:06:00,75.6,72.8,29.92,NNE,28,0.0,0.0,91,0.00,CLR,,0.00,WeatherDisplay:10.37,2013-08-17 07:06:00,
2013-08-17 02:11:00,75.4,72.9,29.92,NNE,28,1.1,1.1,92,0.00,CLR,,0.00,WeatherDisplay:10.37,2013-08-17 07:11:00,
2013-08-17 02:16:00,75.2,72.7,29.92,NNE,28,1.1,0.0,92,0.00,CLR,,0.00,WeatherDisplay:10.37,2013-08-17 07:16:00,
2013-08-17 02:21:00,75.1,72.6,29.92,NNE,18,2.3,2.3,92,0.00,CLR,,0.00,WeatherDisplay:10.37,2013-08-17 07:21:00,
2013-08-17 02:26:00,74.9,72.4,29.92,North,11,2.3,2.3,92,0.00,CLR,,0.00,WeatherDisplay:10.37,2013-08-17 07:26:00,
2013-08-17 02:31:00,74.8,72.6,29.92,North,11,1.1,0.0,93,0.00,CLR,,0.00,WeatherDisplay:10.37,2013-08-17 07:31:00,
2013-08-17 02:36:00,74.7,72.5,29.91,North,11,0.0,0.0,93,0.00,CLR,,0.00,WeatherDisplay:10.37,2013-08-17 07:36:00,
2013-08-17 02:41:00,74.6,72.4,29.91,North,11,1.1,0.0,93,0.00,CLR,,0.00,WeatherDisplay:10.37,2013-08-17 07:41:00,
2013-08-17 02:46:00,74.5,72.3,29.91,North,11,2.3,2.3,93,0.00,CLR,,0.00,WeatherDisplay:10.37,2013-08-17 07:46:00,
2013-08-17 02:51:00,74.5,72.3,29.91,North,11,1.1,0.0,93,0.00,CLR,,0.00,WeatherDisplay:10.37,2013-08-17 07:51:00,
2013-08-17 02:56:00,74.4,72.2,29.91,North,11,2.3,2.3,93,0.00,CLR,,0.00,WeatherDisplay:10.37,2013-08-17 07:56:00,
2013-08-17 03:01:00,74.3,72.1,29.91,North,11,3.5,3.5,93,0.00,CLR,,0.00,WeatherDisplay:10.37,2013-08-17 08:01:00,
2013-08-17 03:06:00,74.3,72.1,29.91,North,11,1.1,1.1,93,0.00,CLR,,0.00,WeatherDisplay:10.37,2013-08-17 08:06:00,
2013-08-17 03:11:00,74.3,72.1,29.91,North,11,4.6,4.6,93,0.00,CLR,,0.00,WeatherDisplay:10.37,2013-08-17 08:11:00,
2013-08-17 03:16:00,74.3,72.1,29.91,North,11,3.5,3.5,93,0.00,CLR,,0.00,WeatherDisplay:10.37,2013-08-17 08:16:00,
2013-08-17 03:21:00,74.3,72.1,29.91,North,11,1.1,1.1,93,0.00,CLR,,0.00,WeatherDisplay:10.37,2013-08-17 08:21:00,
2013-08-17 03:26:00,74.2,72.0,29.90,North,11,2.3,2.3,93,0.00,CLR,,0.00,WeatherDisplay:10.37,2013-08-17 08:26:00,
2013-08-17 03:31:00,74.1,72.3,29.90,North,11,2.3,2.3,94,0.00,CLR,,0.00,WeatherDisplay:10.37,2013-08-17 08:31:00,
2013-08-17 03:36:00,74.1,72.3,29.90,North,11,2.3,2.3,94,0.00,CLR,,0.00,WeatherDisplay:10.37,2013-08-17 08:36:00,
2013-08-17 03:41:00,74.0,72.2,29.90,NNW,346,3.5,3.5,94,0.00,CLR,,0.00,WeatherDisplay:10.37,2013-08-17 08:41:00,
2013-08-17 03:46:00,73.9,72.1,29.90,NNW,346,3.5,3.5,94,0.00,CLR,,0.00,WeatherDisplay:10.37,2013-08-17 08:46:00,
2013-08-17 03:51:00,73.9,72.1,29.90,NNW,346,2.3,2.3,94,0.00,CLR,,0.00,WeatherDisplay:10.37,2013-08-17 08:51:00,
2013-08-17 03:56:00,74.0,72.2,29.91,NE,36,5.8,5.8,94,0.00,CLR,,0.00,WeatherDisplay:10.37,2013-08-17 08:56:00,
2013-08-17 04:01:00,74.0,72.2,29.91,NNE,24,4.6,4.6,94,0.00,CLR,,0.00,WeatherDisplay:10.37,2013-08-17 09:01:00,
2013-08-17 04:06:00,74.0,72.2,29.91,North,11,4.6,4.6,94,0.00,CLR,,0.00,WeatherDisplay:10.37,2013-08-17 09:06:00,
2013-08-17 04:11:00,73.9,72.1,29.91,North,11,3.5,3.5,94,0.00,CLR,,0.00,WeatherDisplay:10.37,2013-08-17 09:11:00,
2013-08-17 04:16:00,73.9,72.1,29.91,NE,34,4.6,4.6,94,0.00,CLR,,0.00,WeatherDisplay:10.37,2013-08-17 09:16:00,
2013-08-17 04:21:00,73.9,72.1,29.91,NE,36,2.3,2.3,94,0.00,CLR,,0.00,WeatherDisplay:10.37,2013-08-17 09:21:00,
2013-08-17 04:26:00,73.9,72.1,29.91,NE,34,3.5,3.5,94,0.00,CLR,,0.00,WeatherDisplay:10.37,2013-08-17 09:26:00,
2013-08-17 04:31:00,73.9,72.4,29.91,NE,34,3.5,3.5,95,0.00,CLR,,0.00,WeatherDisplay:10.37,2013-08-17 09:31:00,
2013-08-17 04:36:00,73.9,72.4,29.91,NE,34,3.5,3.5,95,0.00,CLR,,0.00,WeatherDisplay:10.37,2013-08-17 09:36:00,
2013-08-17 04:41:00,73.8,72.3,29.91,NE,34,4.6,4.6,95,0.00,CLR,,0.00,WeatherDisplay:10.37,2013-08-17 09:41:00,
2013-08-17 04:46:00,73.8,72.3,29.91,NNE,27,3.5,3.5,95,0.00,CLR,,0.00,WeatherDisplay:10.37,2013-08-17 09:46:00,
2013-08-17 04:51:00,73.7,72.2,29.91,NNE,27,2.3,2.3,95,0.00,CLR,,0.00,WeatherDisplay:10.37,2013-08-17 09:51:00,
2013-08-17 04:56:00,73.7,72.2,29.91,NNE,23,5.8,5.8,95,0.00,CLR,,0.00,WeatherDisplay:10.37,2013-08-17 09:56:00,
2013-08-17 05:01:00,73.8,72.3,29.91,North,3,5.8,5.8,95,0.00,CLR,,0.00,WeatherDisplay:10.37,2013-08-17 10:01:00,
2013-08-17 05:06:00,73.8,72.3,29.91,North,1,4.6,4.6,95,0.00,CLR,,0.00,WeatherDisplay:10.37,2013-08-17 10:06:00,
2013-08-17 05:11:00,73.9,72.7,29.91,North,1,3.5,3.5,96,0.00,CLR,,0.00,WeatherDisplay:10.37,2013-08-17 10:11:00,
2013-08-17 05:16:00,74.1,72.9,29.91,North,11,4.6,4.6,96,0.00,CLR,,0.00,WeatherDisplay:10.37,2013-08-17 10:16:00,
2013-08-17 05:21:00,74.1,72.9,29.91,North,8,4.6,4.6,96,0.00,CLR,,0.00,WeatherDisplay:10.37,2013-08-17 10:21:00,
2013-08-17 05:26:00,74.3,73.1,29.91,North,352,4.6,4.6,96,0.00,CLR,,0.00,WeatherDisplay:10.37,2013-08-17 10:26:00,
2013-08-17 05:31:00,74.4,73.2,29.91,NW,326,3.5,3.5,96,0.00,CLR,,0.00,WeatherDisplay:10.37,2013-08-17 10:31:00,
2013-08-17 05:36:00,74.5,73.3,29.91,North,0,5.8,5.8,96,0.00,CLR,,0.00,WeatherDisplay:10.37,2013-08-17 10:36:00,
2013-08-17 05:41:00,74.5,73.3,29.91,North,0,4.6,4.6,96,0.00,CLR,,0.00,WeatherDisplay:10.37,2013-08-17 10:41:00,
2013-08-17 05:46:00,74.6,73.4,29.91,North,355,3.5,3.5,96,0.00,CLR,,0.00,WeatherDisplay:10.37,2013-08-17 10:46:00,
2013-08-17 05:51:00,74.7,73.5,29.92,North,354,5.8,5.8,96,0.00,CLR,,0.00,WeatherDisplay:10.37,2013-08-17 10:51:00,
2013-08-17 05:56:00,74.7,73.5,29.92,North,8,3.5,3.5,96,0.00,CLR,,0.00,WeatherDisplay:10.37,2013-08-17 10:56:00,
2013-08-17 06:01:00,74.8,73.9,29.92,NNW,347,3.5,3.5,97,0.00,CLR,,0.00,WeatherDisplay:10.37,2013-08-17 11:01:00,
2013-08-17 06:06:00,74.8,73.9,29.92,North,11,5.8,5.8,97,0.00,CLR,,0.00,WeatherDisplay:10.37,2013-08-17 11:06:00,
2013-08-17 06:11:00,74.8,73.9,29.92,North,352,5.8,5.8,97,0.00,CLR,,0.00,WeatherDisplay:10.37,2013-08-17 11:11:00,
2013-08-17 06:16:00,74.9,73.7,29.92,North,1,5.8,5.8,96,0.00,CLR,,0.00,WeatherDisplay:10.37,2013-08-17 11:16:00,
2013-08-17 06:21:00,74.9,73.7,29.92,North,359,5.8,5.8,96,0.00,CLR,,0.00,WeatherDisplay:10.37,2013-08-17 11:21:00,
2013-08-17 06:26:00,74.8,73.9,29.92,North,1,4.6,4.6,97,0.00,CLR,,0.00,WeatherDisplay:10.37,2013-08-17 11:26:00,
2013-08-17 06:31:00,74.8,73.9,29.92,NE,37,5.8,5.8,97,0.00,CLR,,0.00,WeatherDisplay:10.37,2013-08-17 11:31:00,
2013-08-17 06:36:00,74.8,73.9,29.92,North,0,5.8,5.8,97,0.00,CLR,,0.00,WeatherDisplay:10.37,2013-08-17 11:36:00,
2013-08-17 06:41:00,74.8,73.9,29.93,North,11,4.6,4.6,97,0.00,CLR,,0.00,WeatherDisplay:10.37,2013-08-17 11:41:00,
2013-08-17 06:46:00,74.7,73.8,29.93,NNE,30,5.8,5.8,97,0.00,CLR,,0.00,WeatherDisplay:10.37,2013-08-17 11:46:00,
2013-08-17 06:51:00,74.6,73.7,29.93,North,359,5.8,5.8,97,0.00,CLR,,0.00,WeatherDisplay:10.37,2013-08-17 11:51:00,
2013-08-17 06:56:00,74.5,73.6,29.93,NNE,23,5.3,5.3,97,0.00,CLR,,0.00,WeatherDisplay:10.37,2013-08-17 11:56:00,
2013-08-17 07:01:00,74.3,73.4,29.93,North,1,5.8,5.8,97,0.00,CLR,,0.00,WeatherDisplay:10.37,2013-08-17 12:01:00,
2013-08-17 07:06:00,74.3,73.4,29.93,North,6,4.6,4.6,97,0.00,CLR,,0.00,WeatherDisplay:10.37,2013-08-17 12:06:00,
2013-08-17 07:11:00,74.3,73.4,29.93,North,1,5.8,5.8,97,0.00,CLR,,0.00,WeatherDisplay:10.37,2013-08-17 12:11:00,
2013-08-17 07:16:00,74.3,73.1,29.94,North,6,3.2,3.2,96,0.00,CLR,,0.00,WeatherDisplay:10.37,2013-08-17 12:16:00,
2013-08-17 07:21:00,74.3,73.1,29.94,NNE,15,4.6,4.6,96,0.00,CLR,,0.00,WeatherDisplay:10.37,2013-08-17 12:21:00,
2013-08-17 07:26:00,74.4,73.5,29.94,North,7,4.6,4.6,97,0.00,CLR,,0.00,WeatherDisplay:10.37,2013-08-17 12:26:00,
2013-08-17 07:31:00,74.5,73.3,29.94,North,359,4.6,4.6,96,0.00,CLR,,0.00,WeatherDisplay:10.37,2013-08-17 12:31:00,
2013-08-17 07:36:00,74.7,73.8,29.94,North,1,4.6,4.6,97,0.00,CLR,,0.00,WeatherDisplay:10.37,2013-08-17 12:36:00,
2013-08-17 07:41:00,75.0,73.8,29.94,North,1,3.5,3.5,96,0.00,CLR,,0.00,WeatherDisplay:10.37,2013-08-17 12:41:00,
2013-08-17 07:46:00,75.3,74.1,29.94,North,1,2.3,2.3,96,0.00,CLR,,0.00,WeatherDisplay:10.37,2013-08-17 12:46:00,
2013-08-17 07:51:00,75.6,74.4,29.95,North,0,5.8,5.8,96,0.00,CLR,,0.00,WeatherDisplay:10.37,2013-08-17 12:51:00,
2013-08-17 07:56:00,75.9,74.4,29.95,North,1,2.3,2.3,95,0.00,CLR,,0.00,WeatherDisplay:10.37,2013-08-17 12:56:00,
2013-08-17 08:01:00,76.2,74.3,29.95,North,359,5.8,5.8,94,0.00,CLR,,0.00,WeatherDisplay:10.37,2013-08-17 13:01:00,
2013-08-17 08:06:00,76.5,74.3,29.95,NNE,20,9.2,9.2,93,0.00,CLR,,0.00,WeatherDisplay:10.37,2013-08-17 13:06:00,
2013-08-17 08:11:00,76.8,74.3,29.95,NNE,19,12.7,12.7,92,0.00,CLR,,0.00,WeatherDisplay:10.37,2013-08-17 13:11:00,
2013-08-17 08:16:00,77.2,74.7,29.96,North,356,5.8,5.8,92,0.00,CLR,,0.00,WeatherDisplay:10.37,2013-08-17 13:16:00,
2013-08-17 08:21:00,77.6,74.8,29.96,NNW,346,5.8,5.8,91,0.00,CLR,,0.00,WeatherDisplay:10.37,2013-08-17 13:21:00,
2013-08-17 08:26:00,78.0,74.5,29.96,WNW,294,6.9,6.9,89,0.00,CLR,,0.00,WeatherDisplay:10.37,2013-08-17 13:26:00,
2013-08-17 08:31:00,78.2,74.4,29.96,NNE,13,6.9,6.9,88,0.00,CLR,,0.00,WeatherDisplay:10.37,2013-08-17 13:31:00,
2013-08-17 08:36:00,78.5,74.3,29.96,North,359,6.9,6.9,87,0.00,CLR,,0.00,WeatherDisplay:10.37,2013-08-17 13:36:00,
2013-08-17 08:41:00,78.7,74.2,29.96,NW,312,5.8,5.8,86,0.00,CLR,,0.00,WeatherDisplay:10.37,2013-08-17 13:41:00,
2013-08-17 08:46:00,79.0,74.5,29.96,North,1,5.8,5.8,86,0.00,CLR,,0.00,WeatherDisplay:10.37,2013-08-17 13:46:00,
2013-08-17 08:51:00,79.4,74.5,29.96,NNW,337,5.8,5.8,85,0.00,CLR,,0.00,WeatherDisplay:10.37,2013-08-17 13:51:00,
2013-08-17 08:56:00,79.7,74.4,29.96,North,354,6.9,6.9,84,0.00,CLR,,0.00,WeatherDisplay:10.37,2013-08-17 13:56:00,
2013-08-17 09:01:00,79.8,74.5,29.96,NNE,27,9.2,9.2,84,0.00,CLR,,0.00,WeatherDisplay:10.37,2013-08-17 14:01:00,
2013-08-17 09:06:00,80.2,74.9,29.96,NE,45,5.8,5.8,84,0.00,CLR,,0.00,WeatherDisplay:10.37,2013-08-17 14:06:00,
2013-08-17 09:11:00,80.3,74.3,29.97,North,1,8.1,8.1,82,0.00,CLR,,0.00,WeatherDisplay:10.37,2013-08-17 14:11:00,
2013-08-17 09:16:00,80.6,74.6,29.96,North,354,9.4,9.4,82,0.00,CLR,,0.00,WeatherDisplay:10.37,2013-08-17 14:16:00,
2013-08-17 09:21:00,80.8,74.4,29.97,North,2,9.2,9.2,81,0.00,CLR,,0.00,WeatherDisplay:10.37,2013-08-17 14:21:00,
2013-08-17 09:26:00,80.8,74.4,29.97,NNE,29,5.8,5.8,81,0.00,CLR,,0.00,WeatherDisplay:10.37,2013-08-17 14:26:00,
2013-08-17 09:31:00,81.0,74.2,29.97,North,350,10.4,10.4,80,0.00,CLR,,0.00,WeatherDisplay:10.37,2013-08-17 14:31:00,
2013-08-17 09:36:00,81.1,74.7,29.97,ENE,58,12.7,12.7,81,0.00,CLR,,0.00,WeatherDisplay:10.37,2013-08-17 14:36:00,
2013-08-17 09:41:00,80.8,74.8,29.97,NNE,19,5.8,5.8,82,0.00,CLR,,0.00,WeatherDisplay:10.37,2013-08-17 14:41:00,
2013-08-17 09:46:00,81.0,74.6,29.97,North,1,10.4,10.4,81,0.00,CLR,,0.00,WeatherDisplay:10.37,2013-08-17 14:46:00,
2013-08-17 09:51:00,81.1,74.7,29.97,North,1,11.5,11.5,81,0.00,CLR,,0.00,WeatherDisplay:10.37,2013-08-17 14:51:00,
2013-08-17 09:56:00,81.6,74.8,29.97,ENE,58,9.2,9.2,80,0.00,CLR,,0.00,WeatherDisplay:10.37,2013-08-17 14:56:00,
2013-08-17 10:01:00,82.1,74.9,29.97,NE,35,6.3,6.3,79,0.00,CLR,,0.00,WeatherDisplay:10.37,2013-08-17 15:01:00,
2013-08-17 10:06:00,82.4,74.5,29.97,NNE,31,10.4,10.4,77,0.00,CLR,,0.00,WeatherDisplay:10.37,2013-08-17 15:06:00,
2013-08-17 10:11:00,82.5,74.6,29.97,North,11,5.8,5.8,77,0.00,CLR,,0.00,WeatherDisplay:10.37,2013-08-17 15:11:00,
2013-08-17 10:16:00,82.9,74.6,29.97,NNW,348,9.2,9.2,76,0.00,CLR,,0.00,WeatherDisplay:10.37,2013-08-17 15:16:00,
2013-08-17 10:21:00,83.5,74.7,29.97,NNE,16,10.4,10.4,75,0.00,CLR,,0.00,WeatherDisplay:10.37,2013-08-17 15:21:00,
2013-08-17 10:26:00,83.9,74.7,29.97,North,9,9.2,9.2,74,0.00,CLR,,0.00,WeatherDisplay:10.37,2013-08-17 15:26:00,
2013-08-17 10:31:00,84.1,74.9,29.97,NE,40,13.8,13.8,74,0.00,CLR,,0.00,WeatherDisplay:10.37,2013-08-17 15:31:00,
2013-08-17 10:36:00,84.4,75.2,29.97,North,354,6.9,6.9,74,0.00,CLR,,0.00,WeatherDisplay:10.37,2013-08-17 15:36:00,
2013-08-17 10:41:00,84.6,74.6,29.97,NNE,15,6.9,6.9,72,0.00,CLR,,0.00,WeatherDisplay:10.37,2013-08-17 15:41:00,
2013-08-17 10:46:00,84.7,74.7,29.97,NNE,30,9.2,9.2,72,0.00,CLR,,0.00,WeatherDisplay:10.37,2013-08-17 15:46:00,
2013-08-17 10:51:00,85.0,75.0,29.97,ENE,70,13.8,13.8,72,0.00,CLR,,0.00,WeatherDisplay:10.37,2013-08-17 15:51:00,
2013-08-17 10:56:00,85.2,74.7,29.97,WNW,285,6.9,6.9,71,0.00,CLR,,0.00,WeatherDisplay:10.37,2013-08-17 15:56:00,
2013-08-17 11:01:00,85.7,74.8,29.97,North,1,10.4,10.4,70,0.00,CLR,,0.00,WeatherDisplay:10.37,2013-08-17 16:01:00,
2013-08-17 11:06:00,85.5,75.0,29.97,North,2,6.9,6.9,71,0.00,CLR,,0.00,WeatherDisplay:10.37,2013-08-17 16:06:00,
2013-08-17 11:11:00,86.3,74.9,29.97,North,1,5.8,5.8,69,0.00,CLR,,0.00,WeatherDisplay:10.37,2013-08-17 16:11:00,
2013-08-17 11:16:00,86.6,74.8,29.97,North,1,11.5,11.5,68,0.00,CLR,,0.00,WeatherDisplay:10.37,2013-08-17 16:16:00,
2013-08-17 11:21:00,86.2,74.8,29.97,North,352,9.2,9.2,69,0.00,CLR,,0.00,WeatherDisplay:10.37,2013-08-17 16:21:00,
2013-08-17 11:26:00,86.6,74.8,29.97,NNE,30,6.9,6.9,68,0.00,CLR,,0.00,WeatherDisplay:10.37,2013-08-17 16:26:00,
2013-08-17 11:31:00,87.0,75.2,29.97,NNE,27,8.1,8.1,68,0.00,CLR,,0.00,WeatherDisplay:10.37,2013-08-17 16:31:00,
2013-08-17 11:36:00,87.0,74.7,29.97,NNE,32,10.4,10.4,67,0.00,CLR,,0.00,WeatherDisplay:10.37,2013-08-17 16:36:00,
2013-08-17 11:41:00,87.0,74.7,29.97,NE,55,10.4,10.4,67,0.00,CLR,,0.00,WeatherDisplay:10.37,2013-08-17 16:41:00,
2013-08-17 11:46:00,87.3,75.4,29.97,North,354,11.5,11.5,68,0.00,CLR,,0.00,WeatherDisplay:10.37,2013-08-17 16:46:00,
2013-08-17 11:51:00,87.8,75.5,29.97,North,1,6.9,6.9,67,0.00,CLR,,0.00,WeatherDisplay:10.37,2013-08-17 16:51:00,
2013-08-17 11:56:00,87.9,75.1,29.97,NNW,339,8.1,8.1,66,0.00,CLR,,0.00,WeatherDisplay:10.37,2013-08-17 16:56:00,
2013-08-17 12:01:00,88.0,75.2,29.96,North,0,5.8,5.8,66,0.00,CLR,,0.00,WeatherDisplay:10.37,2013-08-17 17:01:00,
2013-08-17 12:06:00,88.1,74.8,29.96,North,2,15.0,15.0,65,0.00,CLR,,0.00,WeatherDisplay:10.37,2013-08-17 17:06:00,
2013-08-17 12:11:00,88.4,74.7,29.96,NNE,13,13.8,13.8,64,0.00,CLR,,0.00,WeatherDisplay:10.37,2013-08-17 17:11:00,
2013-08-17 12:16:00,88.6,74.4,29.96,NE,47,11.5,11.5,63,0.00,CLR,,0.00,WeatherDisplay:10.37,2013-08-17 17:16:00,
2013-08-17 12:21:00,88.6,74.4,29.96,NNW,334,11.5,11.5,63,0.00,CLR,,0.00,WeatherDisplay:10.37,2013-08-17 17:21:00,
2013-08-17 12:26:00,88.9,74.2,29.95,North,357,6.9,6.9,62,0.00,CLR,,0.00,WeatherDisplay:10.37,2013-08-17 17:26:00,
2013-08-17 12:31:00,89.5,75.2,29.95,ENE,66,5.8,5.8,63,0.00,CLR,,0.00,WeatherDisplay:10.37,2013-08-17 17:31:00,
2013-08-17 12:36:00,89.6,74.4,29.95,NE,46,6.9,6.9,61,0.00,CLR,,0.00,WeatherDisplay:10.37,2013-08-17 17:36:00,
2013-08-17 12:41:00,89.6,75.8,29.95,ENE,75,8.1,8.1,64,0.00,CLR,,0.00,WeatherDisplay:10.37,2013-08-17 17:41:00,
2013-08-17 12:46:00,88.7,75.9,29.95,NE,56,9.2,9.2,66,0.00,CLR,,0.00,WeatherDisplay:10.37,2013-08-17 17:46:00,
2013-08-17 12:51:00,89.1,75.8,29.94,ENE,72,9.2,9.2,65,0.00,CLR,,0.00,WeatherDisplay:10.37,2013-08-17 17:51:00,
2013-08-17 12:56:00,89.6,76.3,29.94,ENE,73,9.2,9.2,65,0.00,CLR,,0.00,WeatherDisplay:10.37,2013-08-17 17:56:00,
2013-08-17 13:01:00,89.6,76.3,29.94,ENE,74,9.4,9.4,65,0.00,CLR,,0.00,WeatherDisplay:10.37,2013-08-17 18:01:00,
2013-08-17 13:06:00,89.4,76.1,29.94,ENE,62,16.1,16.1,65,0.00,CLR,,0.00,WeatherDisplay:10.37,2013-08-17 18:06:00,
2013-08-17 13:11:00,89.1,75.8,29.94,ENE,72,12.7,12.7,65,0.00,CLR,,0.00,WeatherDisplay:10.37,2013-08-17 18:11:00,
2013-08-17 13:16:00,89.4,76.1,29.94,NE,43,9.2,9.2,65,0.00,CLR,,0.00,WeatherDisplay:10.37,2013-08-17 18:16:00,
2013-08-17 13:21:00,89.6,75.3,29.93,East,81,12.7,12.7,63,0.00,CLR,,0.00,WeatherDisplay:10.37,2013-08-17 18:21:00,
2013-08-17 13:26:00,89.4,75.6,29.93,NE,34,6.9,6.9,64,0.00,CLR,,0.00,WeatherDisplay:10.37,2013-08-17 18:26:00,
2013-08-17 13:31:00,89.6,74.9,29.93,ESE,109,10.4,10.4,62,0.00,CLR,,0.00,WeatherDisplay:10.37,2013-08-17 18:31:00,
2013-08-17 13:36:00,89.8,75.5,29.93,ENE,75,12.7,12.7,63,0.00,CLR,,0.00,WeatherDisplay:10.37,2013-08-17 18:36:00,
2013-08-17 13:41:00,89.9,74.6,29.93,ENE,70,16.1,16.1,61,0.00,CLR,,0.00,WeatherDisplay:10.37,2013-08-17 18:41:00,
2013-08-17 13:46:00,89.7,74.9,29.93,East,80,11.5,11.5,62,0.00,CLR,,0.00,WeatherDisplay:10.37,2013-08-17 18:46:00,
2013-08-17 13:51:00,90.0,74.7,29.92,ENE,60,5.8,5.8,61,0.00,CLR,,0.00,WeatherDisplay:10.37,2013-08-17 18:51:00,
2013-08-17 13:56:00,90.5,76.2,29.92,ESE,119,10.4,10.4,63,0.00,CLR,,0.00,WeatherDisplay:10.37,2013-08-17 18:56:00,
2013-08-17 14:01:00,90.2,77.3,29.92,East,81,9.2,9.2,66,0.00,CLR,,0.00,WeatherDisplay:10.37,2013-08-17 19:01:00,
2013-08-17 14:06:00,90.1,76.7,29.92,East,79,10.4,10.4,65,0.00,CLR,,0.00,WeatherDisplay:10.37,2013-08-17 19:06:00,
2013-08-17 14:11:00,89.6,76.7,29.92,East,86,12.7,12.7,66,0.00,CLR,,0.00,WeatherDisplay:10.37,2013-08-17 19:11:00,
2013-08-17 14:16:00,89.1,77.2,29.92,ENE,70,10.4,10.4,68,0.00,CLR,,0.00,WeatherDisplay:10.37,2013-08-17 19:16:00,
2013-08-17 14:21:00,89.5,76.6,29.92,East,99,12.7,12.7,66,0.00,CLR,,0.00,WeatherDisplay:10.37,2013-08-17 19:21:00,
2013-08-17 14:26:00,89.2,77.7,29.92,East,83,13.8,13.8,69,0.00,CLR,,0.00,WeatherDisplay:10.37,2013-08-17 19:26:00,
2013-08-17 14:31:00,88.7,77.7,29.92,East,86,10.4,10.4,70,0.00,CLR,,0.00,WeatherDisplay:10.37,2013-08-17 19:31:00,
2013-08-17 14:36:00,88.4,77.4,29.92,ENE,69,11.5,11.5,70,0.00,CLR,,0.00,WeatherDisplay:10.37,2013-08-17 19:36:00,
2013-08-17 14:41:00,88.2,77.6,29.91,ENE,62,17.3,17.3,71,0.00,CLR,,0.00,WeatherDisplay:10.37,2013-08-17 19:41:00,
2013-08-17 14:46:00,87.9,77.7,29.92,East,87,13.8,13.8,72,0.00,CLR,,0.00,WeatherDisplay:10.37,2013-08-17 19:46:00,
2013-08-17 14:51:00,88.0,78.3,29.91,NE,37,10.4,10.4,73,0.00,CLR,,0.00,WeatherDisplay:10.37,2013-08-17 19:51:00,
2013-08-17 14:56:00,88.2,78.0,29.91,ESE,116,12.7,12.7,72,0.00,CLR,,0.00,WeatherDisplay:10.37,2013-08-17 19:56:00,
2013-08-17 15:01:00,87.9,77.3,29.91,ESE,110,12.7,12.7,71,0.00,CLR,,0.00,WeatherDisplay:10.37,2013-08-17 20:01:00,
2013-08-17 15:06:00,87.4,77.3,29.91,ESE,123,11.5,11.5,72,0.00,CLR,,0.00,WeatherDisplay:10.37,2013-08-17 20:06:00,
2013-08-17 15:11:00,86.9,77.2,29.91,East,86,16.1,16.1,73,0.00,CLR,,0.00,WeatherDisplay:10.37,2013-08-17 20:11:00,
2013-08-17 15:16:00,87.5,77.4,29.91,SE,124,6.9,6.9,72,0.00,CLR,,0.00,WeatherDisplay:10.37,2013-08-17 20:16:00,
2013-08-17 15:21:00,88.2,77.2,29.91,East,83,12.7,12.7,70,0.00,CLR,,0.00,WeatherDisplay:10.37,2013-08-17 20:21:00,
2013-08-17 15:26:00,87.9,76.9,29.91,East,82,13.8,13.8,70,0.00,CLR,,0.00,WeatherDisplay:10.37,2013-08-17 20:26:00,
2013-08-17 15:31:00,88.0,76.1,29.90,SE,139,11.5,11.5,68,0.00,CLR,,0.00,WeatherDisplay:10.37,2013-08-17 20:31:00,
2013-08-17 15:36:00,87.9,76.5,29.90,ESE,117,15.0,15.0,69,0.00,CLR,,0.00,WeatherDisplay:10.37,2013-08-17 20:36:00,
2013-08-17 15:41:00,88.4,76.5,29.90,ENE,59,5.8,5.8,68,0.00,CLR,,0.00,WeatherDisplay:10.37,2013-08-17 20:41:00,
2013-08-17 15:46:00,88.9,76.5,29.90,East,94,8.1,8.1,67,0.00,CLR,,0.00,WeatherDisplay:10.37,2013-08-17 20:46:00,
2013-08-17 15:51:00,88.3,75.9,29.90,ENE,68,17.3,17.3,67,0.00,CLR,,0.00,WeatherDisplay:10.37,2013-08-17 20:51:00,
2013-08-17 15:56:00,88.1,76.2,29.89,SE,127,6.9,6.9,68,0.00,CLR,,0.00,WeatherDisplay:10.37,2013-08-17 20:56:00,
2013-08-17 16:01:00,87.9,76.5,29.89,SE,124,10.4,10.4,69,0.00,CLR,,0.00,WeatherDisplay:10.37,2013-08-17 21:01:00,
2013-08-17 16:06:00,87.7,75.8,29.89,East,101,13.8,13.8,68,0.00,CLR,,0.00,WeatherDisplay:10.37,2013-08-17 21:06:00,
2013-08-17 16:11:00,87.4,75.5,29.89,SE,124,13.8,13.8,68,0.00,CLR,,0.00,WeatherDisplay:10.37,2013-08-17 21:11:00,
2013-08-17 16:16:00,87.3,75.9,29.89,SE,130,11.5,11.5,69,0.00,CLR,,0.00,WeatherDisplay:10.37,2013-08-17 21:16:00,
2013-08-17 16:21:00,87.4,75.5,29.89,ESE,107,18.4,18.4,68,0.00,CLR,,0.00,WeatherDisplay:10.37,2013-08-17 21:21:00,
2013-08-17 16:26:00,87.5,75.6,29.88,ESE,104,17.3,17.3,68,0.00,CLR,,0.00,WeatherDisplay:10.37,2013-08-17 21:26:00,
2013-08-17 16:31:00,87.6,76.2,29.88,ESE,121,11.5,11.5,69,0.00,CLR,,0.00,WeatherDisplay:10.37,2013-08-17 21:31:00,
2013-08-17 16:36:00,87.8,75.9,29.88,East,98,10.4,10.4,68,0.00,CLR,,0.00,WeatherDisplay:10.37,2013-08-17 21:36:00,
2013-08-17 16:41:00,87.3,75.4,29.88,East,94,11.5,11.5,68,0.00,CLR,,0.00,WeatherDisplay:10.37,2013-08-17 21:41:00,
2013-08-17 16:46:00,87.6,74.8,29.88,SE,127,9.4,9.4,66,0.00,CLR,,0.00,WeatherDisplay:10.37,2013-08-17 21:46:00,
2013-08-17 16:51:00,87.3,75.4,29.88,SE,134,10.4,10.4,68,0.00,CLR,,0.00,WeatherDisplay:10.37,2013-08-17 21:51:00,
2013-08-17 16:56:00,87.5,75.2,29.88,East,86,13.8,13.8,67,0.00,CLR,,0.00,WeatherDisplay:10.37,2013-08-17 21:56:00,
2013-08-17 17:01:00,87.6,75.3,29.88,East,94,15.0,15.0,67,0.00,CLR,,0.00,WeatherDisplay:10.37,2013-08-17 22:01:00,
2013-08-17 17:06:00,87.2,74.9,29.88,SE,141,13.8,13.8,67,0.00,CLR,,0.00,WeatherDisplay:10.37,2013-08-17 22:06:00,
2013-08-17 17:11:00,87.2,74.5,29.88,ENE,67,17.3,17.3,66,0.00,CLR,,0.00,WeatherDisplay:10.37,2013-08-17 22:11:00,
2013-08-17 17:16:00,87.1,74.4,29.88,SE,140,17.3,17.3,66,0.00,CLR,,0.00,WeatherDisplay:10.37,2013-08-17 22:16:00,
2013-08-17 17:21:00,87.3,75.4,29.88,ENE,70,9.2,9.2,68,0.00,CLR,,0.00,WeatherDisplay:10.37,2013-08-17 22:21:00,
2013-08-17 17:26:00,87.3,74.1,29.88,SE,132,6.9,6.9,65,0.00,CLR,,0.00,WeatherDisplay:10.37,2013-08-17 22:26:00,
2013-08-17 17:31:00,87.5,74.3,29.88,ESE,114,8.1,8.1,65,0.00,CLR,,0.00,WeatherDisplay:10.37,2013-08-17 22:31:00,
2013-08-17 17:36:00,87.7,75.4,29.88,SSE,150,9.2,9.2,67,0.00,CLR,,0.00,WeatherDisplay:10.37,2013-08-17 22:36:00,
2013-08-17 17:41:00,87.4,73.7,29.88,East,86,15.0,15.0,64,0.00,CLR,,0.00,WeatherDisplay:10.37,2013-08-17 22:41:00,
2013-08-17 17:46:00,86.9,74.2,29.88,East,86,10.4,10.4,66,0.00,CLR,,0.00,WeatherDisplay:10.37,2013-08-17 22:46:00,
2013-08-17 17:51:00,86.8,74.5,29.88,ESE,111,10.4,10.4,67,0.00,CLR,,0.00,WeatherDisplay:10.37,2013-08-17 22:51:00,
2013-08-17 17:56:00,86.5,74.2,29.88,East,98,14.7,14.7,67,0.00,CLR,,0.00,WeatherDisplay:10.37,2013-08-17 22:56:00,
2013-08-17 18:01:00,86.6,74.3,29.88,ESE,110,11.5,11.5,67,0.00,CLR,,0.00,WeatherDisplay:10.37,2013-08-17 23:01:00,
2013-08-17 18:06:00,86.5,74.2,29.88,ESE,103,11.5,11.5,67,0.00,CLR,,0.00,WeatherDisplay:10.37,2013-08-17 23:06:00,
2013-08-17 18:11:00,86.3,74.5,29.88,ESE,119,12.7,12.7,68,0.00,CLR,,0.00,WeatherDisplay:10.37,2013-08-17 23:11:00,
2013-08-17 18:16:00,86.1,74.3,29.88,East,101,11.5,11.5,68,0.00,CLR,,0.00,WeatherDisplay:10.37,2013-08-17 23:16:00,
2013-08-17 18:21:00,86.4,73.7,29.88,ESE,118,11.6,11.6,66,0.00,CLR,,0.00,WeatherDisplay:10.37,2013-08-17 23:21:00,
2013-08-17 18:26:00,86.3,74.0,29.88,SE,134,10.4,10.4,67,0.00,CLR,,0.00,WeatherDisplay:10.37,2013-08-17 23:26:00,
2013-08-17 18:31:00,86.2,73.0,29.88,ESE,105,16.1,16.1,65,0.00,CLR,,0.00,WeatherDisplay:10.37,2013-08-17 23:31:00,
2013-08-17 18:36:00,86.2,73.5,29.88,NNE,23,12.7,12.7,66,0.00,CLR,,0.00,WeatherDisplay:10.37,2013-08-17 23:36:00,
2013-08-17 18:41:00,86.2,72.6,29.88,East,89,12.7,12.7,64,0.00,CLR,,0.00,WeatherDisplay:10.37,2013-08-17 23:41:00,
2013-08-17 18:46:00,86.1,72.5,29.88,SE,129,11.5,11.5,64,0.00,CLR,,0.00,WeatherDisplay:10.37,2013-08-17 23:46:00,
2013-08-17 18:51:00,86.0,73.3,29.88,SE,134,5.8,5.8,66,0.00,CLR,,0.00,WeatherDisplay:10.37,2013-08-17 23:51:00,
2013-08-17 18:56:00,85.9,73.2,29.88,East,99,10.4,10.4,66,0.00,CLR,,0.00,WeatherDisplay:10.37,2013-08-17 23:56:00,
2013-08-17 19:01:00,85.5,73.3,29.88,ESE,112,13.8,13.8,67,0.00,CLR,,0.00,WeatherDisplay:10.37,2013-08-18 00:01:00,
2013-08-17 19:06:00,85.3,74.0,29.88,ESE,112,5.8,5.8,69,0.00,CLR,,0.00,WeatherDisplay:10.37,2013-08-18 00:06:00,
2013-08-17 19:11:00,85.2,73.4,29.88,ESE,120,6.3,6.3,68,0.00,CLR,,0.00,WeatherDisplay:10.37,2013-08-18 00:11:00,
2013-08-17 19:16:00,85.0,73.7,29.88,ESE,122,10.4,10.4,69,0.00,CLR,,0.00,WeatherDisplay:10.37,2013-08-18 00:16:00,
2013-08-17 19:21:00,84.8,73.9,29.88,East,85,10.4,10.4,70,0.00,CLR,,0.00,WeatherDisplay:10.37,2013-08-18 00:21:00,
2013-08-17 19:26:00,84.6,73.7,29.88,ESE,103,10.4,10.4,70,0.00,CLR,,0.00,WeatherDisplay:10.37,2013-08-18 00:26:00,
2013-08-17 19:31:00,84.4,74.0,29.88,SE,127,5.8,5.8,71,0.00,CLR,,0.00,WeatherDisplay:10.37,2013-08-18 00:31:00,
2013-08-17 19:36:00,84.3,74.7,29.88,East,94,5.8,5.8,73,0.00,CLR,,0.00,WeatherDisplay:10.37,2013-08-18 00:36:00,
2013-08-17 19:41:00,84.0,74.8,29.89,East,101,8.1,8.1,74,0.00,CLR,,0.00,WeatherDisplay:10.37,2013-08-18 00:41:00,
2013-08-17 19:46:00,83.7,74.9,29.88,East,101,5.8,5.8,75,0.00,CLR,,0.00,WeatherDisplay:10.37,2013-08-18 00:46:00,
2013-08-17 19:51:00,83.6,74.8,29.89,East,81,5.8,5.8,75,0.00,CLR,,0.00,WeatherDisplay:10.37,2013-08-18 00:51:00,
2013-08-17 19:56:00,83.3,74.5,29.89,ESE,113,5.8,5.8,75,0.00,CLR,,0.00,WeatherDisplay:10.37,2013-08-18 00:56:00,
2013-08-17 20:01:00,83.2,74.0,29.89,ESE,121,4.6,4.6,74,0.00,CLR,,0.00,WeatherDisplay:10.37,2013-08-18 01:01:00,
2013-08-17 20:06:00,83.1,73.9,29.89,SE,143,6.9,6.9,74,0.00,CLR,,0.00,WeatherDisplay:10.37,2013-08-18 01:06:00,
2013-08-17 20:11:00,82.9,73.8,29.89,SE,146,5.8,5.8,74,0.00,CLR,,0.00,WeatherDisplay:10.37,2013-08-18 01:11:00,
2013-08-17 20:16:00,82.9,74.2,29.89,ESE,107,4.6,4.6,75,0.00,CLR,,0.00,WeatherDisplay:10.37,2013-08-18 01:16:00,
2013-08-17 20:21:00,82.8,74.5,29.89,SE,143,6.9,6.9,76,0.00,CLR,,0.00,WeatherDisplay:10.37,2013-08-18 01:21:00,
2013-08-17 20:26:00,82.7,75.1,29.89,East,89,6.9,6.9,78,0.00,CLR,,0.00,WeatherDisplay:10.37,2013-08-18 01:26:00,
2013-08-17 20:31:00,82.6,75.0,29.90,ESE,119,4.6,4.6,78,0.00,CLR,,0.00,WeatherDisplay:10.37,2013-08-18 01:31:00,
2013-08-17 20:36:00,82.4,75.2,29.90,ESE,112,5.8,5.8,79,0.00,CLR,,0.00,WeatherDisplay:10.37,2013-08-18 01:36:00,
2013-08-17 20:41:00,82.3,75.1,29.90,ESE,108,5.8,5.8,79,0.00,CLR,,0.00,WeatherDisplay:10.37,2013-08-18 01:41:00,
2013-08-17 20:46:00,82.1,74.9,29.90,East,88,4.6,4.6,79,0.00,CLR,,0.00,WeatherDisplay:10.37,2013-08-18 01:46:00,
2013-08-17 20:51:00,82.0,75.2,29.90,ESE,115,5.8,5.8,80,0.00,CLR,,0.00,WeatherDisplay:10.37,2013-08-18 01:51:00,
2013-08-17 20:56:00,81.9,75.1,29.90,ESE,114,4.6,4.6,80,0.00,CLR,,0.00,WeatherDisplay:10.37,2013-08-18 01:56:00,
2013-08-17 21:01:00,81.9,75.1,29.90,East,98,5.8,5.8,80,0.00,CLR,,0.00,WeatherDisplay:10.37,2013-08-18 02:01:00,
2013-08-17 21:06:00,81.9,75.5,29.90,ESE,105,5.8,5.8,81,0.00,CLR,,0.00,WeatherDisplay:10.37,2013-08-18 02:06:00,
2013-08-17 21:11:00,81.8,75.4,29.90,ESE,117,4.6,4.6,81,0.00,CLR,,0.00,WeatherDisplay:10.37,2013-08-18 02:11:00,
2013-08-17 21:16:00,81.8,75.8,29.90,ESE,117,5.8,5.8,82,0.00,CLR,,0.00,WeatherDisplay:10.37,2013-08-18 02:16:00,
2013-08-17 21:21:00,81.7,75.7,29.90,SE,126,6.9,6.9,82,0.00,CLR,,0.00,WeatherDisplay:10.37,2013-08-18 02:21:00,
2013-08-17 21:26:00,81.7,76.0,29.91,ESE,117,5.8,5.8,83,0.00,CLR,,0.00,WeatherDisplay:10.37,2013-08-18 02:26:00,
2013-08-17 21:31:00,81.6,75.9,29.91,ESE,107,5.8,5.8,83,0.00,CLR,,0.00,WeatherDisplay:10.37,2013-08-18 02:31:00,
2013-08-17 21:36:00,81.6,75.9,29.91,SE,124,3.5,3.5,83,0.00,CLR,,0.00,WeatherDisplay:10.37,2013-08-18 02:36:00,
2013-08-17 21:41:00,81.5,75.8,29.91,SE,127,5.8,5.8,83,0.00,CLR,,0.00,WeatherDisplay:10.37,2013-08-18 02:41:00,
2013-08-17 21:46:00,81.5,76.2,29.91,ESE,113,6.9,6.9,84,0.00,CLR,,0.00,WeatherDisplay:10.37,2013-08-18 02:46:00,
2013-08-17 21:51:00,81.5,76.2,29.91,East,95,9.2,9.2,84,0.00,CLR,,0.00,WeatherDisplay:10.37,2013-08-18 02:51:00,
2013-08-17 21:56:00,81.5,76.2,29.91,SE,128,11.5,11.5,84,0.00,CLR,,0.00,WeatherDisplay:10.37,2013-08-18 02:56:00,
2013-08-17 22:01:00,81.5,76.2,29.92,SE,130,4.6,4.6,84,0.00,CLR,,0.00,WeatherDisplay:10.37,2013-08-18 03:01:00,
2013-08-17 22:06:00,81.5,76.2,29.92,ESE,110,4.2,4.2,84,0.00,CLR,,0.00,WeatherDisplay:10.37,2013-08-18 03:06:00,
2013-08-17 22:11:00,81.4,76.1,29.92,East,84,8.1,8.1,84,0.00,CLR,,0.00,WeatherDisplay:10.37,2013-08-18 03:11:00,
2013-08-17 22:16:00,81.4,76.1,29.92,SE,129,8.1,8.1,84,0.00,CLR,,0.00,WeatherDisplay:10.37,2013-08-18 03:16:00,
2013-08-17 22:21:00,81.4,76.1,29.93,SE,131,8.1,8.1,84,0.00,CLR,,0.00,WeatherDisplay:10.37,2013-08-18 03:21:00,
2013-08-17 22:26:00,81.4,75.7,29.93,SE,130,5.8,5.8,83,0.00,CLR,,0.00,WeatherDisplay:10.37,2013-08-18 03:26:00,
2013-08-17 22:31:00,81.4,75.7,29.93,ESE,113,5.8,5.8,83,0.00,CLR,,0.00,WeatherDisplay:10.37,2013-08-18 03:31:00,
2013-08-17 22:36:00,81.4,75.7,29.93,SE,128,5.8,5.8,83,0.00,CLR,,0.00,WeatherDisplay:10.37,2013-08-18 03:36:00,
2013-08-17 22:41:00,81.4,76.1,29.93,ESE,108,5.8,5.8,84,0.00,CLR,,0.00,WeatherDisplay:10.37,2013-08-18 03:41:00,
2013-08-17 22:46:00,81.3,75.6,29.93,ESE,108,6.9,6.9,83,0.00,CLR,,0.00,WeatherDisplay:10.37,2013-08-18 03:46:00,
2013-08-17 22:51:00,81.4,75.7,29.93,SE,124,5.8,5.8,83,0.00,CLR,,0.00,WeatherDisplay:10.37,2013-08-18 03:51:00,
2013-08-17 22:56:00,81.4,75.7,29.93,SE,143,6.9,6.9,83,0.00,CLR,,0.00,WeatherDisplay:10.37,2013-08-18 03:56:00,
2013-08-17 23:01:00,81.4,75.7,29.93,SE,129,5.8,5.8,83,0.00,CLR,,0.00,WeatherDisplay:10.37,2013-08-18 04:01:00,
2013-08-17 23:06:00,81.4,75.7,29.93,SE,136,5.8,5.8,83,0.00,CLR,,0.00,WeatherDisplay:10.37,2013-08-18 04:06:00,
2013-08-17 23:11:00,81.3,76.0,29.93,SE,127,5.8,5.8,84,0.00,CLR,,0.00,WeatherDisplay:10.37,2013-08-18 04:11:00,
2013-08-17 23:16:00,81.2,75.9,29.93,ESE,115,6.9,6.9,84,0.00,CLR,,0.00,WeatherDisplay:10.37,2013-08-18 04:16:00,
2013-08-17 23:21:00,81.1,75.8,29.93,SE,129,5.8,5.8,84,0.00,CLR,,0.00,WeatherDisplay:10.37,2013-08-18 04:21:00,
2013-08-17 23:26:00,81.0,75.7,29.93,SSE,148,5.8,5.8,84,0.00,CLR,,0.00,WeatherDisplay:10.37,2013-08-18 04:26:00,
2013-08-17 23:31:00,81.0,76.1,29.93,SE,141,4.6,4.6,85,0.00,CLR,,0.00,WeatherDisplay:10.37,2013-08-18 04:31:00,
2013-08-17 23:36:00,81.0,76.1,29.93,SE,134,5.8,5.8,85,0.00,CLR,,0.00,WeatherDisplay:10.37,2013-08-18 04:36:00,
2013-08-17 23:41:00,81.0,76.1,29.94,ESE,105,6.9,6.9,85,0.00,CLR,,0.00,WeatherDisplay:10.37,2013-08-18 04:41:00,
2013-08-17 23:46:00,80.9,75.6,29.94,ESE,109,5.8,5.8,84,0.00,CLR,,0.00,WeatherDisplay:10.37,2013-08-18 04:46:00,
2013-08-17 23:51:00,80.9,75.6,29.94,SE,130,4.6,4.6,84,0.00,CLR,,0.00,WeatherDisplay:10.37,2013-08-18 04:51:00,
2013-08-17 23:56:00,80.9,75.6,29.94,SSE,151,4.2,4.2,84,0.00,CLR,,0.00,WeatherDisplay:10.37,2013-08-18 04:56:00,